createdAt,value
2019-01-15T00:01:16.798Z,3.17
2019-01-15T00:03:45.768Z,2.97
2019-01-15T00:06:14.771Z,2.97
2019-01-15T00:08:43.748Z,2.63
2019-01-15T00:11:12.750Z,2.90
2019-01-15T00:13:41.791Z,2.90
2019-01-15T00:16:10.750Z,2.67
2019-01-15T00:18:42.443Z,3.00
2019-01-15T00:21:11.409Z,2.70
2019-01-15T00:23:40.390Z,2.43
2019-01-15T00:26:09.351Z,2.20
2019-01-15T00:28:38.330Z,2.63
2019-01-15T00:31:07.294Z,2.47
2019-01-15T00:33:36.269Z,2.30
2019-01-15T00:36:05.274Z,2.47
2019-01-15T00:38:34.303Z,2.67
2019-01-15T00:41:03.290Z,2.33
2019-01-15T00:43:32.335Z,2.40
2019-01-15T00:46:01.306Z,1.87
2019-01-15T00:48:30.294Z,2.37
2019-01-15T00:50:59.261Z,2.37
2019-01-15T00:53:28.230Z,2.30
2019-01-15T00:55:57.211Z,2.40
2019-01-15T00:58:26.177Z,1.87
2019-01-15T01:00:55.250Z,2.67
2019-01-15T01:03:24.222Z,2.73
2019-01-15T01:05:53.203Z,2.27
2019-01-15T01:08:22.702Z,2.50
2019-01-15T01:10:51.797Z,2.23
2019-01-15T01:13:20.768Z,2.63
2019-01-15T01:15:49.779Z,2.90
2019-01-15T01:18:18.746Z,2.87
2019-01-15T01:20:47.734Z,2.30
2019-01-15T01:23:16.711Z,2.10
2019-01-15T01:25:45.676Z,2.30
2019-01-15T01:28:14.643Z,2.33
2019-01-15T01:30:43.626Z,2.23
2019-01-15T01:33:12.634Z,2.20
2019-01-15T01:35:41.598Z,2.50
2019-01-15T01:38:10.570Z,2.03
2019-01-15T01:40:39.556Z,2.40
2019-01-15T01:43:08.546Z,2.33
2019-01-15T01:45:37.518Z,1.97
2019-01-15T01:48:06.494Z,2.37
2019-01-15T01:50:35.486Z,2.50
2019-01-15T01:53:04.446Z,2.20
2019-01-15T01:55:33.420Z,2.47
2019-01-15T01:58:02.444Z,2.30
2019-01-15T02:00:31.415Z,2.20
2019-01-15T02:03:00.382Z,2.80
2019-01-15T02:05:29.354Z,2.10
2019-01-15T02:07:58.321Z,2.70
2019-01-15T02:10:27.287Z,3.73
2019-01-15T02:12:56.286Z,2.73
2019-01-15T02:15:25.262Z,2.07
2019-01-15T02:17:54.242Z,2.50
2019-01-15T02:20:23.213Z,2.10
2019-01-15T02:22:52.186Z,2.00
2019-01-15T02:25:21.150Z,2.67
2019-01-15T02:27:50.481Z,1.50
2019-01-15T02:30:20.636Z,1.43
2019-01-15T02:32:49.602Z,1.60
2019-01-15T02:35:18.562Z,2.37
2019-01-15T02:37:47.544Z,1.53
2019-01-15T02:40:16.525Z,2.33
2019-01-15T02:42:46.901Z,1.50
2019-01-15T02:45:18.008Z,1.33
2019-01-15T02:47:47.242Z,1.17
2019-01-15T02:50:17.182Z,1.30
2019-01-15T02:52:46.162Z,1.50
2019-01-15T02:55:15.209Z,1.60
2019-01-15T02:57:44.245Z,1.13
2019-01-15T03:00:14.822Z,1.37
2019-01-15T03:02:43.794Z,1.10
2019-01-15T03:05:12.931Z,1.77
2019-01-15T03:07:41.975Z,1.57
2019-01-15T03:10:12.949Z,1.30
2019-01-15T03:12:43.581Z,1.50
2019-01-15T03:15:12.698Z,1.70
2019-01-15T03:17:41.664Z,1.57
2019-01-15T03:20:14.443Z,1.20
2019-01-15T03:22:43.591Z,2.23
2019-01-15T03:25:12.934Z,1.60
2019-01-15T03:27:41.898Z,1.23
2019-01-15T03:30:12.409Z,1.13
2019-01-15T03:32:41.422Z,1.40
2019-01-15T03:35:10.393Z,1.17
2019-01-15T03:37:39.422Z,1.37
2019-01-15T03:40:09.930Z,1.50
2019-01-15T03:42:38.900Z,1.50
2019-01-15T03:45:08.302Z,1.70
2019-01-15T03:47:37.274Z,1.53
2019-01-15T03:50:07.419Z,1.20
2019-01-15T03:52:36.403Z,1.27
2019-01-15T03:55:06.246Z,1.07
2019-01-15T03:57:35.212Z,1.60
2019-01-15T04:00:08.722Z,1.57
2019-01-15T04:02:37.695Z,2.37
2019-01-15T04:05:07.506Z,1.60
2019-01-15T04:07:36.750Z,1.50
2019-01-15T04:10:07.458Z,1.13
2019-01-15T04:12:36.450Z,1.20
2019-01-15T04:15:07.001Z,2.07
2019-01-15T04:17:35.974Z,1.57
2019-01-15T04:20:06.483Z,1.80
2019-01-15T04:22:35.476Z,1.50
2019-01-15T04:25:04.921Z,1.30
2019-01-15T04:27:33.901Z,1.40
2019-01-15T04:30:04.754Z,1.53
2019-01-15T04:32:34.501Z,1.87
2019-01-15T04:35:04.698Z,1.90
2019-01-15T04:37:33.666Z,1.40
2019-01-15T04:40:02.652Z,1.37
2019-01-15T04:42:31.638Z,1.90
2019-01-15T04:45:01.518Z,1.87
2019-01-15T04:47:30.488Z,1.73
2019-01-15T04:49:59.462Z,1.40
2019-01-15T04:52:28.610Z,1.80
2019-01-15T04:54:57.594Z,1.87
2019-01-15T04:57:26.561Z,1.43
2019-01-15T04:59:55.639Z,1.93
2019-01-15T05:02:24.602Z,1.70
2019-01-15T05:04:53.593Z,2.90
2019-01-15T05:07:22.556Z,1.60
2019-01-15T05:09:51.518Z,1.77
2019-01-15T05:12:21.073Z,1.77
2019-01-15T05:14:50.076Z,1.97
2019-01-15T05:17:19.041Z,1.80
2019-01-15T05:19:48.014Z,2.10
2019-01-15T05:22:16.986Z,1.70
2019-01-15T05:24:45.974Z,2.07
2019-01-15T05:27:14.997Z,2.07
2019-01-15T05:29:43.962Z,1.70
2019-01-15T05:32:12.947Z,1.90
2019-01-15T05:34:42.057Z,1.90
2019-01-15T05:37:11.038Z,2.30
2019-01-15T05:39:39.998Z,1.90
2019-01-15T05:42:08.986Z,2.23
2019-01-15T05:44:37.954Z,2.33
2019-01-15T05:47:06.926Z,2.30
2019-01-15T05:49:35.906Z,2.73
2019-01-15T05:52:07.417Z,2.47
2019-01-15T05:54:36.402Z,2.50
2019-01-15T05:57:05.366Z,2.73
2019-01-15T05:59:34.401Z,2.20
2019-01-15T06:02:03.440Z,2.63
2019-01-15T06:04:32.442Z,2.03
2019-01-15T06:07:01.404Z,2.17
2019-01-15T06:09:30.410Z,1.87
2019-01-15T06:11:59.384Z,1.97
2019-01-15T06:14:28.375Z,2.30
2019-01-15T06:16:57.357Z,2.40
2019-01-15T06:19:26.330Z,2.17
2019-01-15T06:21:55.349Z,2.20
2019-01-15T06:24:24.383Z,2.30
2019-01-15T06:26:53.622Z,2.20
2019-01-15T06:29:22.590Z,2.47
2019-01-15T06:31:51.566Z,2.13
2019-01-15T06:34:20.550Z,1.97
2019-01-15T06:36:49.839Z,2.33
2019-01-15T06:39:18.786Z,2.33
2019-01-15T06:41:47.774Z,2.60
2019-01-15T06:44:16.742Z,2.67
2019-01-15T06:46:45.713Z,2.70
2019-01-15T06:49:14.705Z,2.20
2019-01-15T06:51:48.079Z,2.60
2019-01-15T06:54:16.996Z,2.67
2019-01-15T06:56:45.979Z,2.93
2019-01-15T06:59:14.983Z,2.47
2019-01-15T07:01:43.955Z,2.63
2019-01-15T07:04:12.998Z,2.17
2019-01-15T07:06:41.966Z,2.40
2019-01-15T07:09:11.133Z,2.87
2019-01-15T07:11:40.111Z,3.10
2019-01-15T07:14:09.799Z,3.10
2019-01-15T07:16:38.839Z,2.83
2019-01-15T07:19:07.819Z,3.30
2019-01-15T07:21:36.796Z,3.20
2019-01-15T07:24:05.783Z,2.83
2019-01-15T07:26:34.827Z,3.10
2019-01-15T07:29:03.806Z,3.00
2019-01-15T07:31:32.803Z,2.67
2019-01-15T07:34:01.755Z,3.43
2019-01-15T07:36:30.837Z,3.30
2019-01-15T07:38:59.806Z,3.37
2019-01-15T07:41:28.809Z,3.37
2019-01-15T07:44:04.153Z,3.10
2019-01-15T07:46:28.451Z,3.23
2019-01-15T07:48:57.422Z,2.97
2019-01-15T07:51:27.653Z,3.80
2019-01-15T07:53:56.782Z,3.77
2019-01-15T07:56:25.800Z,3.90
2019-01-15T07:58:54.832Z,3.70
2019-01-15T08:01:24.364Z,3.73
2019-01-15T08:03:53.466Z,3.30
2019-01-15T08:06:22.448Z,3.27
2019-01-15T08:08:51.410Z,3.30
2019-01-15T08:11:20.371Z,3.63
2019-01-15T08:13:49.375Z,4.73
2019-01-15T08:16:18.338Z,3.67
2019-01-15T08:18:47.326Z,3.53
2019-01-15T08:21:16.301Z,3.40
2019-01-15T08:23:45.296Z,3.63
2019-01-15T08:26:14.267Z,3.93
2019-01-15T08:28:43.253Z,2.97
2019-01-15T08:31:12.243Z,3.63
2019-01-15T08:33:41.214Z,3.60
2019-01-15T08:36:10.202Z,3.03
2019-01-15T08:38:39.166Z,3.70
2019-01-15T08:41:08.142Z,3.17
2019-01-15T08:43:37.122Z,3.40
2019-01-15T08:46:06.095Z,3.60
2019-01-15T08:48:35.246Z,3.27
2019-01-15T08:51:04.576Z,3.50
2019-01-15T08:53:33.878Z,3.47
2019-01-15T08:56:03.041Z,3.20
2019-01-15T08:58:32.010Z,4.20
2019-01-15T09:01:00.982Z,3.80
2019-01-15T09:03:29.958Z,3.40
2019-01-15T09:05:58.929Z,3.17
2019-01-15T09:08:27.894Z,3.20
2019-01-15T09:10:56.875Z,3.57
2019-01-15T09:13:25.850Z,3.47
2019-01-15T09:15:54.811Z,4.00
2019-01-15T09:18:23.786Z,3.40
2019-01-15T09:20:52.750Z,3.70
2019-01-15T09:23:21.739Z,3.70
2019-01-15T09:25:50.703Z,3.97
2019-01-15T09:28:19.666Z,3.97
2019-01-15T09:30:48.645Z,5.47
2019-01-15T09:33:17.606Z,4.50
2019-01-15T09:35:46.726Z,3.87
2019-01-15T09:38:15.767Z,4.23
2019-01-15T09:40:44.735Z,3.90
2019-01-15T09:43:13.714Z,3.87
2019-01-15T09:45:42.696Z,4.37
2019-01-15T09:48:12.322Z,4.00
2019-01-15T09:50:41.319Z,3.67
2019-01-15T09:53:10.317Z,4.27
2019-01-15T09:55:39.340Z,4.43
2019-01-15T09:58:08.327Z,4.00
2019-01-15T10:00:37.308Z,4.53
2019-01-15T10:03:06.266Z,4.23
2019-01-15T10:05:35.307Z,4.20
2019-01-15T10:08:04.305Z,4.00
2019-01-15T10:10:33.268Z,4.43
2019-01-15T10:13:02.234Z,4.50
2019-01-15T10:15:31.207Z,3.93
2019-01-15T10:18:00.186Z,3.93
2019-01-15T10:20:29.226Z,4.47
2019-01-15T10:22:58.282Z,4.70
2019-01-15T10:25:28.110Z,4.73
2019-01-15T10:27:57.774Z,4.87
2019-01-15T10:30:35.569Z,5.00
2019-01-15T10:33:06.079Z,5.13
2019-01-15T10:35:36.586Z,4.87
2019-01-15T10:38:05.570Z,4.73
2019-01-15T10:40:34.606Z,4.60
2019-01-15T10:43:03.567Z,4.70
2019-01-15T10:45:32.550Z,5.23
2019-01-15T10:48:01.519Z,5.77
2019-01-15T10:50:30.498Z,5.67
2019-01-15T10:52:59.469Z,5.23
2019-01-15T10:55:28.444Z,5.77
2019-01-15T10:57:58.401Z,5.50
2019-01-15T11:00:27.489Z,5.83
2019-01-15T11:02:56.464Z,5.47
2019-01-15T11:05:25.428Z,5.40
2019-01-15T11:07:54.401Z,5.30
2019-01-15T11:10:23.358Z,5.07
2019-01-15T11:12:52.351Z,5.90
2019-01-15T11:15:21.313Z,5.43
2019-01-15T11:17:50.286Z,5.53
2019-01-15T11:20:20.349Z,5.00
2019-01-15T11:22:49.302Z,5.40
2019-01-15T11:25:18.274Z,6.20
2019-01-15T11:27:47.262Z,6.43
2019-01-15T11:30:16.300Z,5.27
2019-01-15T11:32:45.535Z,6.70
2019-01-15T11:35:14.482Z,5.87
2019-01-15T11:37:43.452Z,5.80
2019-01-15T11:40:13.802Z,6.73
2019-01-15T11:42:42.767Z,5.37
2019-01-15T11:45:13.281Z,5.80
2019-01-15T11:47:42.238Z,5.50
2019-01-15T11:50:13.153Z,6.20
2019-01-15T11:52:42.158Z,6.23
2019-01-15T11:55:11.299Z,5.97
2019-01-15T11:57:40.289Z,5.10
2019-01-15T12:00:10.782Z,5.60
2019-01-15T12:02:40.526Z,5.70
2019-01-15T12:05:20.278Z,5.43
2019-01-15T12:07:53.575Z,5.60
2019-01-15T12:10:24.243Z,4.63
2019-01-15T12:12:57.503Z,5.37
2019-01-15T12:15:30.810Z,6.43
2019-01-15T12:18:16.483Z,5.40
2019-01-15T12:20:58.841Z,5.03
2019-01-15T12:23:29.453Z,4.60
2019-01-15T12:26:11.999Z,5.20
2019-01-15T12:28:57.451Z,4.60
2019-01-15T12:31:28.112Z,5.03
2019-01-15T12:34:01.654Z,5.03
2019-01-15T12:36:32.271Z,5.53
2019-01-15T12:39:14.762Z,4.67
2019-01-15T12:41:45.394Z,4.77
2019-01-15T12:44:18.997Z,5.07
2019-01-15T12:46:55.648Z,4.97
2019-01-15T12:49:28.999Z,4.70
2019-01-15T12:52:11.418Z,4.73
2019-01-15T12:54:53.955Z,4.80
2019-01-15T12:57:36.262Z,4.53
2019-01-15T13:00:14.145Z,4.43
2019-01-15T13:02:44.756Z,4.57
2019-01-15T13:05:24.144Z,4.03
2019-01-15T13:08:11.131Z,4.33
2019-01-15T13:10:53.411Z,5.10
2019-01-15T13:13:29.667Z,4.23
2019-01-15T13:16:09.193Z,3.90
2019-01-15T13:18:45.846Z,4.50
2019-01-15T13:21:32.541Z,4.73
2019-01-15T13:24:03.146Z,4.60
2019-01-15T13:26:51.586Z,4.40
2019-01-15T13:29:22.200Z,4.33
2019-01-15T13:32:01.610Z,4.20
2019-01-15T13:34:32.222Z,4.07
2019-01-15T13:37:02.911Z,4.53
2019-01-15T13:39:33.515Z,4.17
2019-01-15T13:42:20.206Z,4.13
2019-01-15T13:44:53.490Z,3.90
2019-01-15T13:47:40.289Z,4.40
2019-01-15T13:50:11.001Z,3.63
2019-01-15T13:52:47.004Z,3.93
2019-01-15T13:55:20.405Z,4.40
2019-01-15T13:58:05.813Z,4.03
2019-01-15T14:00:36.502Z,3.60
2019-01-15T14:03:12.891Z,4.10
2019-01-15T14:05:58.418Z,3.57
2019-01-15T14:08:31.419Z,4.50
2019-01-15T14:11:10.762Z,4.20
2019-01-15T14:13:57.795Z,3.83
2019-01-15T14:16:43.016Z,3.47
2019-01-15T14:19:16.370Z,3.83
2019-01-15T14:22:02.891Z,3.33
2019-01-15T14:24:39.655Z,3.43
2019-01-15T14:27:10.269Z,3.77
2019-01-15T14:29:56.726Z,3.63
2019-01-15T14:32:27.337Z,3.37
2019-01-15T14:35:14.327Z,3.23
2019-01-15T14:37:53.786Z,3.20
2019-01-15T14:40:24.443Z,3.37
2019-01-15T14:42:55.051Z,3.37
2019-01-15T14:45:25.677Z,3.30
2019-01-15T14:48:12.728Z,2.90
2019-01-15T14:50:43.378Z,2.77
2019-01-15T14:53:16.758Z,3.20
2019-01-15T14:55:47.375Z,2.83
2019-01-15T14:58:34.046Z,2.60
2019-01-15T15:01:10.562Z,2.77
2019-01-15T15:03:41.196Z,2.60
2019-01-15T15:06:26.963Z,2.73
2019-01-15T15:09:06.519Z,3.57
2019-01-15T15:11:53.469Z,2.83
2019-01-15T15:14:30.083Z,2.47
2019-01-15T15:17:03.386Z,2.90
2019-01-15T15:19:51.777Z,2.60
2019-01-15T15:22:25.641Z,2.83
2019-01-15T15:25:14.330Z,2.03
2019-01-15T15:27:53.663Z,3.10
2019-01-15T15:30:26.946Z,2.60
2019-01-15T15:33:03.313Z,2.50
2019-01-15T15:35:49.955Z,2.57
2019-01-15T15:38:26.522Z,3.27
2019-01-15T15:40:57.135Z,3.30
2019-01-15T15:43:30.145Z,3.30
2019-01-15T15:46:11.016Z,3.20
2019-01-15T15:48:41.558Z,3.20
2019-01-15T15:51:15.905Z,3.67
2019-01-15T15:54:04.248Z,3.37
2019-01-15T15:56:49.759Z,3.00
2019-01-15T15:59:22.943Z,3.07
2019-01-15T16:01:53.551Z,4.17
2019-01-15T16:04:40.547Z,3.27
2019-01-15T16:07:17.194Z,3.23
2019-01-15T16:10:04.309Z,3.37
2019-01-15T16:12:43.932Z,4.30
2019-01-15T16:15:32.800Z,4.17
2019-01-15T16:18:06.178Z,3.23
2019-01-15T16:20:54.522Z,3.80
2019-01-15T16:23:27.939Z,3.30
2019-01-15T16:26:04.623Z,3.50
2019-01-15T16:28:53.210Z,3.77
2019-01-15T16:31:32.662Z,3.93
2019-01-15T16:34:12.068Z,3.50
2019-01-15T16:36:57.494Z,3.20
2019-01-15T16:39:44.421Z,3.53
2019-01-15T16:42:31.237Z,3.80
2019-01-15T16:45:01.846Z,4.40
2019-01-15T16:47:32.446Z,4.23
2019-01-15T16:50:03.079Z,3.97
2019-01-15T16:52:33.700Z,4.03
2019-01-15T16:55:10.433Z,3.63
2019-01-15T16:57:57.507Z,3.87
2019-01-15T17:00:28.118Z,3.33
2019-01-15T17:03:14.911Z,3.30
2019-01-15T17:05:54.467Z,3.93
2019-01-15T17:08:31.058Z,4.03
2019-01-15T17:11:01.672Z,4.00
2019-01-15T17:13:32.282Z,3.90
2019-01-15T17:16:18.970Z,4.07
2019-01-15T17:19:04.394Z,3.97
2019-01-15T17:21:35.015Z,3.97
2019-01-15T17:24:21.956Z,4.63
2019-01-15T17:27:10.734Z,3.97
2019-01-15T17:29:57.184Z,4.13
2019-01-15T17:32:36.770Z,3.73
2019-01-15T17:35:22.622Z,4.20
2019-01-15T17:38:11.146Z,4.30
2019-01-15T17:40:50.750Z,4.03
2019-01-15T17:43:36.230Z,3.83
2019-01-15T17:46:21.802Z,5.53
2019-01-15T17:49:01.318Z,4.00
2019-01-15T17:51:48.216Z,4.03
2019-01-15T17:54:27.323Z,4.83
2019-01-15T17:56:57.945Z,4.03
2019-01-15T17:59:28.554Z,3.87
2019-01-15T18:02:15.555Z,4.87
2019-01-15T18:04:46.171Z,5.93
2019-01-15T18:07:28.893Z,4.30
2019-01-15T18:10:02.307Z,4.60
2019-01-15T18:12:38.552Z,4.43
2019-01-15T18:15:25.548Z,3.90
2019-01-15T18:17:58.906Z,3.97
2019-01-15T18:20:29.550Z,3.50
2019-01-15T18:23:01.133Z,3.77
2019-01-15T18:25:34.686Z,4.07
2019-01-15T18:28:11.505Z,4.20
2019-01-15T18:31:00.082Z,4.00
2019-01-15T18:33:30.718Z,3.70
2019-01-15T18:36:01.326Z,4.10
2019-01-15T18:38:48.366Z,4.30
2019-01-15T18:41:35.398Z,3.83
2019-01-15T18:44:22.334Z,3.50
2019-01-15T18:47:09.043Z,4.40
2019-01-15T18:49:51.490Z,3.93
2019-01-15T18:52:22.131Z,4.30
2019-01-15T18:54:52.742Z,4.30
2019-01-15T18:57:23.357Z,4.40
2019-01-15T19:00:08.806Z,4.17
2019-01-15T19:02:55.766Z,4.03
2019-01-15T19:05:41.502Z,4.00
2019-01-15T19:08:14.778Z,3.37
2019-01-15T19:10:45.402Z,3.50
2019-01-15T19:13:18.683Z,2.77
2019-01-15T19:15:52.058Z,2.90
2019-01-15T19:18:34.410Z,3.27
2019-01-15T19:21:05.016Z,2.23
2019-01-15T19:23:44.187Z,2.60
2019-01-15T19:26:29.842Z,2.47
2019-01-15T19:29:15.427Z,3.00
2019-01-15T19:32:02.146Z,2.67
2019-01-15T19:34:38.713Z,3.60
2019-01-15T19:37:18.358Z,3.47
2019-01-15T19:39:49.007Z,3.60
2019-01-15T19:42:19.664Z,2.87
2019-01-15T19:45:06.370Z,2.63
2019-01-15T19:47:42.753Z,3.30
2019-01-15T19:50:16.430Z,2.50
2019-01-15T19:52:55.994Z,2.53
2019-01-15T19:55:41.744Z,3.43
2019-01-15T19:58:21.421Z,3.20
2019-01-15T20:00:52.091Z,2.97
2019-01-15T20:03:25.438Z,3.00
2019-01-15T20:06:13.783Z,3.33
2019-01-15T20:08:47.386Z,4.10
2019-01-15T20:11:20.770Z,3.77
2019-01-15T20:13:57.047Z,4.10
2019-01-15T20:16:45.651Z,3.57
2019-01-15T20:19:25.698Z,4.07
2019-01-15T20:22:02.448Z,4.00
2019-01-15T20:24:39.087Z,3.73
2019-01-15T20:27:21.778Z,3.57
2019-01-15T20:30:01.451Z,4.30
2019-01-15T20:32:44.057Z,4.60
2019-01-15T20:35:20.660Z,4.60
2019-01-15T20:38:07.196Z,5.50
2019-01-15T20:40:40.523Z,4.03
2019-01-15T20:43:27.419Z,4.07
2019-01-15T20:45:58.038Z,3.80
2019-01-15T20:48:45.080Z,4.10
2019-01-15T20:51:18.726Z,3.97
2019-01-15T20:53:52.242Z,3.30
2019-01-15T20:56:22.858Z,3.83
2019-01-15T20:59:05.390Z,3.73
2019-01-15T21:01:38.822Z,3.67
2019-01-15T21:04:24.201Z,3.83
2019-01-15T21:07:00.494Z,3.50
2019-01-15T21:09:33.978Z,3.27
2019-01-15T21:12:04.610Z,3.73
2019-01-15T21:14:35.214Z,3.23
2019-01-15T21:17:14.390Z,2.83
2019-01-15T21:19:53.949Z,2.57
2019-01-15T21:22:36.631Z,2.70
2019-01-15T21:25:16.454Z,2.47
2019-01-15T21:27:59.688Z,2.47
2019-01-15T21:30:42.215Z,2.20
2019-01-15T21:33:18.857Z,1.87
2019-01-15T21:36:05.691Z,1.80
2019-01-15T21:38:48.307Z,2.17
2019-01-15T21:41:33.712Z,1.90
2019-01-15T21:44:19.274Z,2.00
2019-01-15T21:46:49.897Z,1.73
2019-01-15T21:49:26.796Z,1.50
2019-01-15T21:51:59.105Z,2.00
2019-01-15T21:54:38.701Z,1.63
2019-01-15T21:57:25.449Z,2.00
2019-01-15T22:00:12.110Z,2.03
2019-01-15T22:02:48.494Z,2.10
2019-01-15T22:05:22.034Z,2.00
2019-01-15T22:07:55.638Z,2.33
2019-01-15T22:10:42.544Z,1.90
2019-01-15T22:13:29.578Z,2.20
2019-01-15T22:16:00.214Z,2.43
2019-01-15T22:18:33.604Z,2.03
2019-01-15T22:21:04.228Z,2.33
2019-01-15T22:23:43.265Z,2.40
2019-01-15T22:26:26.071Z,2.37
2019-01-15T22:29:13.110Z,2.60
2019-01-15T22:31:52.518Z,2.70
2019-01-15T22:34:37.728Z,1.93
2019-01-15T22:37:14.445Z,2.30
2019-01-15T22:39:53.891Z,2.77
2019-01-15T22:42:24.506Z,2.40
2019-01-15T22:45:11.501Z,2.70
2019-01-15T22:47:42.130Z,2.37
2019-01-15T22:50:21.406Z,2.37
2019-01-15T22:52:58.099Z,2.37
2019-01-15T22:55:44.918Z,2.07
2019-01-15T22:58:18.537Z,2.20
2019-01-15T23:01:06.058Z,2.20
2019-01-15T23:03:54.311Z,2.00
2019-01-15T23:06:30.804Z,2.90
2019-01-15T23:09:01.414Z,3.53
2019-01-15T23:11:32.029Z,2.80
2019-01-15T23:14:14.715Z,2.50
2019-01-15T23:16:45.330Z,2.20
2019-01-15T23:19:21.620Z,1.80
2019-01-15T23:21:58.179Z,1.90
2019-01-15T23:24:40.526Z,2.00
2019-01-15T23:27:17.102Z,1.87
2019-01-15T23:29:48.417Z,1.90
2019-01-15T23:32:19.063Z,2.10
2019-01-15T23:34:52.767Z,2.40
2019-01-15T23:37:29.129Z,2.30
2019-01-15T23:39:59.747Z,2.40
2019-01-15T23:42:30.386Z,2.60
2019-01-15T23:45:09.923Z,2.23
2019-01-15T23:47:56.866Z,2.00
2019-01-15T23:50:39.690Z,2.40
2019-01-15T23:53:13.066Z,2.30
2019-01-15T23:55:46.362Z,2.83
2019-01-15T23:58:16.983Z,2.87
